KAIB

Hopkins Field Airport

Nucla, Colorado, USA
METAR KAIB 200535Z AUTO 10007KT 10SM CLR 18/M07 A3017 RMK AO2
Observed Flight Rules
Jun-20 @ 05:35 UTC (7 minutes ago) Visual Flight Rules
Wind Visibility Clouds
100° at 7 knots 10 miles
  • Clear skies
Temperatures Readings
Current 18°C / 64°F
Dewpoint -7°C / 19°F
Humidity 18%
Altimeter 30.17" Hg
Pressure 1022 hPa
Elevation 1811
METAR KAIB 200535Z AUTO 10007KT 10SM CLR 18/M07 A3017 RMK AO2
Observed Flight Rules
Jun-20 @ 05:35 UTC
(7 minutes ago)
VFR
Wind Visibility
100° at 7 knots 10 miles
Clouds
  • Clear skies
Temperature Dewpoint
18°C / 64°F -7°C / 19°F
Humidity Altimeter Pressure
18% 30.17" Hg 1022 hPa